Time;durP1;ratioP1;P1;durP2;ratioP2;P2;SDS_P1;SDS_P2;PMS_P1;PMS_P2;Temp;Humidity;BMP_temperature;BMP_pressure;BME280_temperature;BME280_humidity;BME280_pressure;Samples;Min_cycle;Max_cycle;Signal;HPM_P1;HPM_P2
2023/03/26 00:02:20;;;;;;;17.70;4.47;;;6.40;99.90;;;;;;4321271;28;10000981;-70
2023/03/26 00:04:52;;;;;;;15.70;3.92;;;6.40;99.90;;;;;;5040052;28;20067;-69
2023/03/26 00:07:19;;;;;;;11.35;4.13;;;6.40;99.90;;;;;;5033415;28;20069;-69
2023/03/26 00:09:45;;;;;;;13.63;3.72;;;6.40;99.90;;;;;;5032807;28;20066;-70
2023/03/26 00:12:13;;;;;;;12.60;3.75;;;6.40;99.90;;;;;;5044974;28;20497;-70
2023/03/26 00:14:46;;;;;;;14.93;3.88;;;6.40;99.90;;;;;;5038469;28;20052;-70
2023/03/26 00:17:13;;;;;;;9.98;3.90;;;6.40;99.90;;;;;;5031685;28;20433;-69
2023/03/26 00:19:44;;;;;;;12.65;3.70;;;6.40;99.90;;;;;;5028532;28;20045;-69
2023/03/26 00:22:13;;;;;;;14.15;4.18;;;6.40;99.90;;;;;;5030601;28;20071;-69
2023/03/26 00:24:47;;;;;;;10.35;3.72;;;6.40;99.90;;;;;;5030736;28;20025;-69
2023/03/26 00:27:13;;;;;;;13.90;4.22;;;6.30;99.90;;;;;;5030398;28;20037;-69
2023/03/26 00:29:48;;;;;;;11.18;3.75;;;6.30;99.90;;;;;;5032973;28;20064;-69
2023/03/26 00:32:15;;;;;;;8.98;4.05;;;6.40;99.90;;;;;;5031021;28;20029;-69
2023/03/26 00:34:49;;;;;;;11.82;4.00;;;6.40;99.90;;;;;;5027070;28;20509;-69
2023/03/26 00:37:15;;;;;;;10.57;3.58;;;6.40;99.90;;;;;;5021207;28;20461;-69
2023/03/26 00:39:52;;;;;;;10.18;3.92;;;6.40;99.90;;;;;;5018610;28;20029;-69
2023/03/26 00:42:25;;;;;;;9.65;3.38;;;6.40;99.90;;;;;;5025711;28;20053;-70
2023/03/26 00:45:01;;;;;;;6.85;2.50;;;6.40;99.90;;;;;;5017225;28;20082;-69
2023/03/26 00:47:30;;;;;;;6.70;2.25;;;6.40;99.90;;;;;;5022631;28;20395;-70
2023/03/26 00:50:05;;;;;;;4.70;1.70;;;6.40;99.90;;;;;;5019914;28;20473;-69
2023/03/26 00:52:32;;;;;;;5.63;1.70;;;6.40;99.90;;;;;;5024047;28;20038;-70
2023/03/26 00:55:06;;;;;;;4.50;1.58;;;6.40;99.90;;;;;;5022157;28;20113;-69
2023/03/26 00:57:36;;;;;;;5.90;1.77;;;6.30;99.90;;;;;;5024258;28;20025;-69
2023/03/26 01:00:15;;;;;;;3.75;1.30;;;6.40;99.90;;;;;;5025660;28;20575;-70
2023/03/26 01:02:43;;;;;;;3.95;1.63;;;6.30;99.90;;;;;;5026329;28;20052;-69
2023/03/26 01:05:47;;;;;;;2.30;0.90;;;6.30;99.90;;;;;;5022174;28;20034;-69
2023/03/26 01:08:37;;;;;;;1.65;0.73;;;6.30;99.90;;;;;;4986689;28;20045;-69
2023/03/26 01:11:21;;;;;;;2.53;0.70;;;6.30;99.90;;;;;;5019994;28;20053;-69
2023/03/26 01:14:09;;;;;;;3.13;0.90;;;6.20;99.90;;;;;;5021932;28;20033;-69
2023/03/26 01:16:43;;;;;;;3.10;0.80;;;6.20;99.90;;;;;;5032795;28;20033;-69
2023/03/26 01:19:36;;;;;;;0.70;0.50;;;6.20;99.90;;;;;;5025486;28;20116;-69
2023/03/26 01:22:11;;;;;;;0.68;0.32;;;6.20;99.90;;;;;;5017050;28;20096;-69
2023/03/26 01:24:51;;;;;;;0.60;0.52;;;6.10;99.90;;;;;;5021468;28;20041;-69
2023/03/26 01:27:32;;;;;;;0.55;0.50;;;6.10;99.90;;;;;;5021659;28;20120;-69
2023/03/26 01:30:14;;;;;;;1.40;0.70;;;6.00;99.90;;;;;;5019382;28;20065;-69
2023/03/26 01:32:53;;;;;;;1.17;0.63;;;6.00;99.90;;;;;;5024830;28;20039;-68
2023/03/26 01:35:52;;;;;;;2.60;0.50;;;6.00;99.90;;;;;;5022348;28;20065;-69
2023/03/26 01:38:35;;;;;;;0.95;0.40;;;6.00;99.90;;;;;;5018867;28;20029;-68
2023/03/26 01:41:12;;;;;;;1.13;0.30;;;5.90;99.90;;;;;;5020671;28;20436;-68
2023/03/26 01:44:02;;;;;;;0.52;0.35;;;5.90;99.90;;;;;;5018537;28;20112;-69
2023/03/26 01:46:34;;;;;;;1.30;0.40;;;5.80;99.90;;;;;;5021985;28;20387;-69
2023/03/26 01:49:03;;;;;;;0.40;0.30;;;5.90;99.90;;;;;;5024743;28;20049;-69
2023/03/26 01:51:34;;;;;;;0.85;0.30;;;5.90;99.90;;;;;;5014901;28;20108;-69
2023/03/26 01:54:14;;;;;;;1.10;0.32;;;5.80;99.90;;;;;;5024925;28;20021;-69
2023/03/26 01:57:09;;;;;;;1.80;0.40;;;5.80;99.90;;;;;;5022474;28;20498;-69
2023/03/26 02:00:00;;;;;;;0.68;0.30;;;5.80;99.90;;;;;;5013944;28;20045;-69
2023/03/26 02:02:52;;;;;;;1.30;0.50;;;5.80;99.90;;;;;;5020788;28;20043;-69
2023/03/26 02:05:27;;;;;;;0.70;0.60;;;5.80;99.90;;;;;;5016888;28;20037;-69
2023/03/26 02:08:21;;;;;;;0.82;0.40;;;5.90;99.90;;;;;;5022516;28;20184;-69
2023/03/26 02:11:03;;;;;;;1.17;0.50;;;5.90;99.90;;;;;;5019579;28;20392;-69
2023/03/26 02:13:36;;;;;;;0.45;0.40;;;5.80;99.90;;;;;;5023769;28;20115;-69
2023/03/26 02:16:06;;;;;;;0.28;0.28;;;5.90;99.90;;;;;;5023225;28;20022;-69
2023/03/26 02:18:37;;;;;;;2.22;0.40;;;5.90;99.90;;;;;;5021517;28;20092;-70
2023/03/26 02:21:20;;;;;;;0.55;0.30;;;5.90;99.90;;;;;;5021355;28;20029;-69
2023/03/26 02:24:01;;;;;;;0.60;0.40;;;5.90;99.90;;;;;;5019296;28;20030;-70
2023/03/26 02:26:36;;;;;;;1.50;0.40;;;5.90;99.90;;;;;;5019158;28;20037;-69
2023/03/26 02:29:03;;;;;;;1.08;0.47;;;5.90;99.90;;;;;;5021902;28;20041;-69
2023/03/26 02:31:29;;;;;;;1.60;0.50;;;5.90;99.90;;;;;;5018495;28;20382;-69
2023/03/26 02:34:02;;;;;;;1.27;0.50;;;6.00;99.90;;;;;;5025030;28;20029;-69
2023/03/26 02:36:35;;;;;;;1.50;0.60;;;6.00;99.90;;;;;;5022258;28;20465;-69
2023/03/26 02:39:13;;;;;;;1.13;0.60;;;6.00;99.90;;;;;;5017737;28;20030;-69
2023/03/26 02:41:44;;;;;;;1.63;0.68;;;5.90;99.90;;;;;;5010649;28;20529;-69
2023/03/26 02:44:17;;;;;;;2.53;0.70;;;6.00;99.90;;;;;;5018000;28;20044;-69
2023/03/26 02:46:44;;;;;;;1.83;0.75;;;6.00;99.90;;;;;;5016838;28;20033;-69
2023/03/26 02:49:11;;;;;;;2.20;0.90;;;6.00;99.90;;;;;;5020049;28;20045;-69
2023/03/26 02:51:43;;;;;;;2.28;0.80;;;6.00;99.90;;;;;;5017061;28;20026;-69
2023/03/26 02:54:17;;;;;;;8.13;1.10;;;6.00;99.90;;;;;;5025289;28;20116;-69
2023/03/26 02:56:53;;;;;;;2.30;0.80;;;6.00;99.90;;;;;;5019123;28;20049;-69
2023/03/26 02:59:21;;;;;;;1.40;1.00;;;6.00;99.90;;;;;;5016361;28;20029;-69
2023/03/26 03:01:58;;;;;;;1.60;0.88;;;6.00;99.90;;;;;;5021065;28;20044;-69
2023/03/26 03:04:31;;;;;;;3.58;1.10;;;5.90;99.90;;;;;;5022321;28;20049;-69
2023/03/26 03:07:04;;;;;;;2.08;1.00;;;5.90;99.90;;;;;;5015047;28;20529;-69
2023/03/26 03:09:31;;;;;;;1.83;1.00;;;5.90;99.90;;;;;;5015180;28;20123;-69
2023/03/26 03:11:59;;;;;;;3.63;1.30;;;6.00;99.90;;;;;;5022840;28;20021;-69
2023/03/26 03:14:31;;;;;;;1.88;1.02;;;6.00;99.90;;;;;;5022234;28;20037;-69
2023/03/26 03:17:02;;;;;;;3.17;1.38;;;6.00;99.90;;;;;;5023600;28;20134;-69
2023/03/26 03:19:40;;;;;;;4.10;1.42;;;6.00;99.90;;;;;;5018355;28;20120;-70
2023/03/26 03:22:21;;;;;;;3.17;1.25;;;6.00;99.90;;;;;;5019992;28;20022;-70
2023/03/26 03:24:56;;;;;;;5.18;1.30;;;6.00;99.90;;;;;;5019754;28;20148;-69
2023/03/26 03:27:26;;;;;;;6.47;1.58;;;6.00;99.90;;;;;;5021625;28;20042;-69
2023/03/26 03:29:59;;;;;;;4.82;1.60;;;6.10;99.90;;;;;;5018953;28;20056;-69
2023/03/26 03:32:34;;;;;;;4.88;1.40;;;6.00;99.90;;;;;;5019870;28;20053;-69
2023/03/26 03:35:00;;;;;;;4.50;1.75;;;6.10;99.90;;;;;;5022272;28;20037;-70
2023/03/26 03:37:29;;;;;;;5.50;1.73;;;6.10;99.90;;;;;;5022009;28;20033;-69
2023/03/26 03:39:58;;;;;;;7.55;1.70;;;6.10;99.90;;;;;;5022621;28;20026;-70
2023/03/26 03:42:28;;;;;;;3.10;1.60;;;6.10;99.90;;;;;;5022298;28;20029;-69
2023/03/26 03:45:01;;;;;;;7.35;1.92;;;6.10;99.90;;;;;;5015537;28;20796;-69
2023/03/26 03:47:31;;;;;;;7.68;2.22;;;6.10;99.90;;;;;;5019123;28;20030;-70
2023/03/26 03:50:10;;;;;;;8.30;2.25;;;6.20;99.90;;;;;;5022393;28;20030;-69
2023/03/26 03:52:45;;;;;;;5.97;2.20;;;6.20;99.90;;;;;;5027850;28;20106;-69
2023/03/26 03:55:20;;;;;;;9.77;2.22;;;6.20;99.90;;;;;;5025315;28;20029;-70
2023/03/26 03:57:57;;;;;;;5.30;1.77;;;6.20;99.90;;;;;;5019913;28;20112;-70
2023/03/26 04:00:24;;;;;;;10.25;1.90;;;6.20;99.90;;;;;;5007140;28;20052;-70
2023/03/26 04:02:53;;;;;;;13.20;2.22;;;6.20;99.90;;;;;;5016510;28;20025;-70
2023/03/26 04:05:28;;;;;;;8.10;1.90;;;6.20;99.90;;;;;;5019709;28;20035;-69
2023/03/26 04:08:06;;;;;;;12.43;2.15;;;6.20;99.90;;;;;;5017265;28;20025;-70
2023/03/26 04:10:42;;;;;;;6.75;1.73;;;6.20;99.90;;;;;;5020177;28;20034;-70
2023/03/26 04:13:16;;;;;;;11.13;2.63;;;6.20;99.90;;;;;;5019659;28;20041;-69
2023/03/26 04:15:50;;;;;;;12.95;3.33;;;6.20;99.90;;;;;;5021919;28;20029;-69
2023/03/26 04:18:29;;;;;;;9.68;2.38;;;6.30;99.90;;;;;;5024068;28;20177;-70
2023/03/26 04:20:55;;;;;;;11.27;2.95;;;6.20;99.90;;;;;;5021607;28;20045;-69
2023/03/26 04:23:27;;;;;;;10.07;2.75;;;6.20;99.90;;;;;;5024052;28;20029;-70
2023/03/26 04:25:57;;;;;;;10.85;2.40;;;6.20;99.90;;;;;;5018410;28;20494;-70
2023/03/26 04:28:46;;;;;;;11.68;2.53;;;6.20;99.90;;;;;;5025657;28;20100;-70
2023/03/26 04:31:22;;;;;;;12.45;2.53;;;6.20;99.90;;;;;;5013915;28;20038;-70
2023/03/26 04:33:54;;;;;;;11.05;1.85;;;6.20;99.90;;;;;;5022064;28;20072;-70
2023/03/26 04:36:33;;;;;;;9.68;2.20;;;6.10;99.90;;;;;;5021584;28;20048;-70
2023/03/26 04:39:04;;;;;;;11.23;2.22;;;6.10;99.90;;;;;;5026007;28;20470;-70
2023/03/26 04:41:36;;;;;;;7.30;2.03;;;6.10;99.90;;;;;;5018697;28;20037;-69
2023/03/26 04:44:04;;;;;;;14.50;2.45;;;6.00;99.90;;;;;;5020411;28;20488;-70
2023/03/26 04:46:42;;;;;;;10.48;1.95;;;6.00;99.90;;;;;;5016586;28;20037;-70
2023/03/26 04:49:10;;;;;;;12.32;2.20;;;5.90;99.90;;;;;;5017940;28;20069;-69
2023/03/26 04:51:45;;;;;;;17.13;2.70;;;5.90;99.90;;;;;;5021331;28;20028;-69
2023/03/26 04:54:27;;;;;;;13.00;2.17;;;5.90;99.90;;;;;;5019163;28;20064;-70
2023/03/26 04:57:01;;;;;;;10.65;2.75;;;5.80;99.90;;;;;;5021718;28;20025;-70
2023/03/26 04:59:37;;;;;;;15.15;2.83;;;5.80;99.90;;;;;;5020570;28;20497;-69
2023/03/26 05:02:13;;;;;;;14.60;2.35;;;5.80;99.90;;;;;;5022052;28;20041;-69
2023/03/26 05:04:48;;;;;;;12.32;2.22;;;5.70;99.90;;;;;;5013059;28;20063;-70
2023/03/26 05:07:23;;;;;;;13.35;2.40;;;5.70;99.90;;;;;;5017248;28;20040;-70
2023/03/26 05:09:51;;;;;;;15.30;2.67;;;5.70;99.90;;;;;;5024341;28;20037;-70
2023/03/26 05:12:25;;;;;;;19.48;2.80;;;5.60;99.90;;;;;;5021740;28;20021;-70
2023/03/26 05:15:01;;;;;;;17.15;2.95;;;5.70;99.90;;;;;;5018966;28;20107;-69
2023/03/26 05:17:33;;;;;;;14.38;2.60;;;5.60;99.90;;;;;;5019477;28;20443;-70
2023/03/26 05:20:04;;;;;;;14.45;2.13;;;5.60;99.90;;;;;;5020882;28;20033;-69
2023/03/26 05:22:38;;;;;;;17.00;2.58;;;5.60;99.90;;;;;;5021273;28;20485;-70
2023/03/26 05:25:14;;;;;;;20.38;3.17;;;5.70;99.90;;;;;;5021019;28;20045;-70
2023/03/26 05:27:49;;;;;;;16.67;2.65;;;5.70;99.90;;;;;;5020738;28;20398;-69
2023/03/26 05:30:19;;;;;;;19.20;2.85;;;5.70;99.90;;;;;;5018948;28;20037;-69
2023/03/26 05:32:54;;;;;;;13.00;2.63;;;5.70;99.90;;;;;;5017044;28;20109;-69
2023/03/26 05:35:22;;;;;;;16.23;2.92;;;5.70;99.90;;;;;;5012069;28;20561;-70
2023/03/26 05:38:00;;;;;;;20.90;3.10;;;5.70;99.90;;;;;;5022114;28;20104;-69
2023/03/26 05:40:35;;;;;;;17.92;2.97;;;5.70;99.90;;;;;;5021910;28;20423;-69
2023/03/26 05:43:10;;;;;;;17.88;3.30;;;5.80;99.90;;;;;;5020333;28;20405;-70
2023/03/26 05:45:44;;;;;;;20.42;3.53;;;5.80;99.90;;;;;;5013821;28;20082;-69
2023/03/26 05:48:10;;;;;;;15.48;2.88;;;5.80;99.90;;;;;;5024553;28;20057;-70
2023/03/26 05:50:39;;;;;;;19.27;3.47;;;5.80;99.90;;;;;;5020902;28;20022;-69
2023/03/26 05:53:06;;;;;;;24.15;4.25;;;5.80;99.90;;;;;;4358004;28;10002107;-67
2023/03/26 05:55:32;;;;;;;15.07;3.53;;;5.90;99.90;;;;;;4998214;28;20393;-68
2023/03/26 05:57:58;;;;;;;20.27;3.67;;;5.90;99.90;;;;;;4995752;28;20065;-68
2023/03/26 06:00:25;;;;;;;13.23;3.10;;;5.90;99.90;;;;;;5006633;28;20422;-68
2023/03/26 06:02:50;;;;;;;16.50;3.22;;;5.80;99.90;;;;;;5003820;28;20851;-68
2023/03/26 06:05:16;;;;;;;24.90;10.32;;;5.80;99.90;;;;;;5010432;28;20081;-68
2023/03/26 06:07:43;;;;;;;22.33;7.65;;;5.80;99.90;;;;;;5000508;28;20029;-68
2023/03/26 06:10:10;;;;;;;21.63;9.80;;;5.80;99.90;;;;;;5007865;28;20115;-67
2023/03/26 06:12:36;;;;;;;21.52;6.60;;;;;;;;;;5003876;28;20528;-67
2023/03/26 06:15:03;;;;;;;18.30;5.03;;;6.00;99.90;;;;;;5005609;28;20042;-67
2023/03/26 06:17:29;;;;;;;20.70;5.28;;;6.00;99.90;;;;;;4999253;28;20501;-67
2023/03/26 06:19:56;;;;;;;21.80;4.43;;;6.00;99.90;;;;;;5002815;28;20045;-68
2023/03/26 06:22:21;;;;;;;15.80;4.18;;;6.10;99.90;;;;;;5004100;28;20452;-67
2023/03/26 06:24:49;;;;;;;17.52;4.50;;;6.10;99.90;;;;;;5005048;28;20021;-67
2023/03/26 06:27:15;;;;;;;17.45;4.35;;;6.10;99.90;;;;;;5010078;28;21880;-67
2023/03/26 06:29:42;;;;;;;13.88;3.42;;;6.10;99.90;;;;;;5014282;28;20041;-68
2023/03/26 06:32:08;;;;;;;22.75;4.03;;;6.20;99.90;;;;;;5018859;28;20029;-67
2023/03/26 06:34:34;;;;;;;18.40;3.38;;;6.20;99.90;;;;;;5014389;28;20033;-67
2023/03/26 06:37:00;;;;;;;16.38;3.40;;;6.20;99.90;;;;;;5017626;28;20592;-67
2023/03/26 06:39:26;;;;;;;25.63;3.95;;;6.20;99.90;;;;;;5014499;28;20036;-68
2023/03/26 06:41:53;;;;;;;25.75;4.00;;;6.20;99.90;;;;;;5023411;28;20029;-68
2023/03/26 06:44:18;;;;;;;18.38;3.63;;;6.20;99.90;;;;;;5016150;28;20540;-68
2023/03/26 06:46:45;;;;;;;19.30;3.63;;;6.20;99.90;;;;;;5019829;28;20038;-68
2023/03/26 06:49:12;;;;;;;17.77;3.28;;;6.30;99.90;;;;;;5024223;28;20045;-68
2023/03/26 06:51:40;;;;;;;18.65;3.38;;;6.30;99.90;;;;;;5027833;28;20086;-68
2023/03/26 06:54:07;;;;;;;12.95;2.90;;;6.40;99.90;;;;;;5024718;28;20044;-68
2023/03/26 06:56:34;;;;;;;13.25;2.83;;;6.50;99.90;;;;;;5019776;28;20037;-68
2023/03/26 06:59:00;;;;;;;14.52;3.30;;;6.50;99.90;;;;;;5014970;28;20041;-68
2023/03/26 07:01:26;;;;;;;20.98;6.13;;;6.60;99.90;;;;;;5011702;28;20030;-68
2023/03/26 07:03:53;;;;;;;25.40;5.60;;;6.70;99.90;;;;;;5018362;28;20034;-68
2023/03/26 07:06:19;;;;;;;17.13;4.07;;;6.80;99.90;;;;;;5013756;28;20079;-68
2023/03/26 07:08:45;;;;;;;26.25;7.63;;;6.90;99.90;;;;;;5022959;28;20025;-68
2023/03/26 07:11:12;;;;;;;27.17;7.32;;;6.90;99.90;;;;;;5015803;28;20108;-68
2023/03/26 07:13:38;;;;;;;21.83;6.20;;;7.00;99.90;;;;;;5020629;28;20084;-68
2023/03/26 07:16:06;;;;;;;24.95;8.40;;;7.00;99.90;;;;;;5017424;28;20116;-68
2023/03/26 07:18:32;;;;;;;23.92;8.20;;;7.10;99.90;;;;;;5020451;28;20030;-68
2023/03/26 07:20:59;;;;;;;23.08;8.15;;;7.10;99.90;;;;;;5022731;28;20104;-68
2023/03/26 07:23:25;;;;;;;27.25;7.65;;;7.20;99.90;;;;;;5018108;28;20512;-68
2023/03/26 07:25:51;;;;;;;29.70;9.52;;;7.30;99.90;;;;;;5011633;28;20042;-68
2023/03/26 07:28:44;;;;;;;24.77;7.32;;;;;;;;;;5012924;28;20088;-67
2023/03/26 07:31:16;;;;;;;24.10;8.10;;;;;;;;;;5016057;28;20041;-68
2023/03/26 07:33:42;;;;;;;23.38;6.13;;;;;;;;;;5013448;28;20350;-68
2023/03/26 07:36:12;;;;;;;21.08;7.20;;;;;;;;;;5017997;28;20466;-68
2023/03/26 07:39:04;;;;;;;17.95;4.80;;;;;;;;;;5022095;28;20044;-68
2023/03/26 07:41:38;;;;;;;17.92;4.57;;;;;;;;;;5019549;28;20032;-68
2023/03/26 07:44:05;;;;;;;14.18;4.65;;;;;;;;;;5024133;28;20035;-68
2023/03/26 07:46:33;;;;;;;17.05;6.35;;;;;;;;;;5019374;28;20040;-68
2023/03/26 07:49:00;;;;;;;23.98;7.50;;;;;;;;;;5022794;28;20518;-68
2023/03/26 07:51:27;;;;;;;18.10;4.13;;;;;;;;;;5021071;28;20819;-68
2023/03/26 07:53:54;;;;;;;15.18;5.30;;;;;;;;;;5016253;28;20030;-68
2023/03/26 07:56:33;;;;;;;15.30;4.55;;;;;;;;;;5024509;28;20033;-68
2023/03/26 07:59:12;;;;;;;14.70;3.90;;;;;;;;;;5021089;28;20040;-68
2023/03/26 08:01:38;;;;;;;21.23;5.97;;;;;;;;;;5020294;28;20398;-68
2023/03/26 08:04:05;;;;;;;13.68;5.20;;;;;;;;;;5020352;28;20116;-68
2023/03/26 08:06:36;;;;;;;16.17;4.70;;;;;;;;;;5013855;28;20558;-68
2023/03/26 08:09:07;;;;;;;25.45;5.18;;;;;;;;;;5017895;28;20040;-68
2023/03/26 08:11:52;;;;;;;19.70;3.10;;;;;;;;;;5020414;28;20044;-68
2023/03/26 08:14:37;;;;;;;16.58;2.85;;;;;;;;;;5018744;28;20529;-68
2023/03/26 08:17:03;;;;;;;16.80;3.80;;;;;;;;;;5021816;28;20033;-68
2023/03/26 08:19:37;;;;;;;13.63;3.50;;;;;;;;;;5021943;28;20029;-67
2023/03/26 08:22:08;;;;;;;20.27;4.05;;;;;;;;;;5021595;28;20042;-68
2023/03/26 08:24:53;;;;;;;13.63;2.83;;;;;;;;;;5019772;28;20026;-68
2023/03/26 08:27:26;;;;;;;16.35;4.10;;;;;;;;;;5020805;28;20025;-68
2023/03/26 08:29:53;;;;;;;16.23;3.88;;;;;;;;;;5019250;28;20033;-68
2023/03/26 08:32:20;;;;;;;18.27;3.40;;;;;;;;;;5017814;28;20029;-68
2023/03/26 08:34:47;;;;;;;18.52;4.28;;;;;;;;;;5020995;28;20054;-68
2023/03/26 08:37:13;;;;;;;12.38;3.63;;;;;;;;;;5014415;28;20458;-68
2023/03/26 08:39:40;;;;;;;10.75;3.38;;;;;;;;;;5013733;28;20048;-68
2023/03/26 08:42:13;;;;;;;17.08;3.55;;;;;;;;;;5020989;28;20034;-68
2023/03/26 08:44:55;;;;;;;14.95;3.28;;;;;;;;;;5014321;28;20034;-68
2023/03/26 08:47:41;;;;;;;11.85;3.10;;;;;;;;;;5025224;28;20048;-68
2023/03/26 08:50:30;;;;;;;12.90;3.17;;;;;;;;;;5010102;28;20070;-68
2023/03/26 08:53:12;;;;;;;17.75;3.33;;;;;;;;;;5024695;28;20125;-68
2023/03/26 08:55:57;;;;;;;18.27;3.25;;;;;;;;;;5011248;28;20059;-68
2023/03/26 08:58:27;;;;;;;17.55;3.00;;;;;;;;;;5022168;28;20083;-68
2023/03/26 09:00:53;;;;;;;16.05;2.95;;;;;;;;;;5021275;28;20116;-68
2023/03/26 09:03:45;;;;;;;17.05;3.05;;;;;;;;;;5022380;28;20030;-68
2023/03/26 09:06:41;;;;;;;18.73;3.25;;;;;;;;;;5016998;28;20161;-68
2023/03/26 09:09:26;;;;;;;13.95;3.00;;;;;;;;;;5006119;28;20664;-68
2023/03/26 09:11:52;;;;;;;13.07;2.67;;;;;;;;;;5015829;28;20037;-68
2023/03/26 09:14:19;;;;;;;14.50;2.75;;;;;;;;;;5021567;28;20044;-68
2023/03/26 09:16:46;;;;;;;10.93;2.78;;;;;;;;;;5022129;28;20032;-68
2023/03/26 09:19:30;;;;;;;20.95;5.78;;;;;;;;;;5020850;28;20037;-68
2023/03/26 09:22:05;;;;;;;12.07;3.85;;;;;;;;;;5016253;28;20033;-68
2023/03/26 09:24:56;;;;;;;17.35;4.75;;;;;;;;;;5016064;28;20037;-68
2023/03/26 09:27:35;;;;;;;16.20;3.70;;;;;;;;;;5017885;28;20076;-68
2023/03/26 09:30:11;;;;;;;12.85;4.53;;;;;;;;;;5016421;28;20462;-68
2023/03/26 09:32:56;;;;;;;53.25;15.93;;;;;;;;;;5007190;28;20052;-68
2023/03/26 09:35:42;;;;;;;36.47;12.70;;;;;;;;;;5018598;28;20425;-68
2023/03/26 09:38:17;;;;;;;18.20;4.85;;;;;;;;;;5019368;28;20059;-69
2023/03/26 09:40:52;;;;;;;10.98;3.90;;;;;;;;;;5016540;28;20067;-69
2023/03/26 09:43:18;;;;;;;16.20;4.43;;;;;;;;;;5014369;28;20033;-69
2023/03/26 09:45:54;;;;;;;16.70;4.07;;;;;;;;;;5017176;28;20576;-68
2023/03/26 09:48:25;;;;;;;11.13;3.55;;;;;;;;;;5012086;28;20403;-68
2023/03/26 09:51:16;;;;;;;11.82;3.72;;;;;;;;;;5019128;28;20067;-68
2023/03/26 09:53:52;;;;;;;16.88;4.50;;;;;;;;;;5019013;28;20537;-68
2023/03/26 09:56:24;;;;;;;13.40;3.60;;;;;;;;;;5009694;28;20038;-68
2023/03/26 09:58:55;;;;;;;7.68;2.63;;;;;;;;;;5014244;28;20037;-67
2023/03/26 10:02:01;;;;;;;11.63;4.57;;;8.90;99.90;;;;;;5018196;28;20033;-67
2023/03/26 10:04:39;;;;;;;14.43;5.35;;;8.90;99.90;;;;;;5015702;28;20108;-68
2023/03/26 10:07:41;;;;;;;13.02;5.10;;;8.80;99.90;;;;;;5014881;28;20154;-69
2023/03/26 10:10:30;;;;;;;14.68;4.70;;;8.80;99.90;;;;;;5020918;28;20044;-69
2023/03/26 10:13:29;;;;;;;13.32;4.35;;;8.80;99.90;;;;;;5014005;28;20083;-69
2023/03/26 10:15:57;;;;;;;16.50;4.00;;;8.70;99.90;;;;;;5015409;28;20438;-69
2023/03/26 10:18:56;;;;;;;120.68;13.95;;;8.70;99.90;;;;;;5017389;28;20218;-70
2023/03/26 10:21:42;;;;;;;33.60;6.95;;;8.60;99.90;;;;;;4990769;28;20033;-69
2023/03/26 10:24:26;;;;;;;27.15;5.40;;;8.60;99.90;;;;;;5008866;28;20041;-69
2023/03/26 10:27:16;;;;;;;11.82;4.30;;;8.60;99.90;;;;;;5017249;28;20032;-69
2023/03/26 10:29:55;;;;;;;13.38;4.70;;;8.70;99.90;;;;;;5017395;28;20498;-69
2023/03/26 10:32:36;;;;;;;14.98;4.80;;;8.60;99.90;;;;;;5013899;28;20109;-69
2023/03/26 10:35:20;;;;;;;14.65;4.38;;;8.70;99.90;;;;;;5018178;28;20083;-70
2023/03/26 10:38:30;;;;;;;12.20;4.15;;;8.70;99.90;;;;;;5016539;28;20025;-69
2023/03/26 10:41:25;;;;;;;14.07;3.67;;;8.70;99.90;;;;;;5015645;28;20389;-70
2023/03/26 10:44:10;;;;;;;13.10;3.55;;;8.70;99.90;;;;;;5010733;28;20566;-70
2023/03/26 10:46:59;;;;;;;12.13;3.70;;;8.70;99.90;;;;;;5019156;28;20438;-70
2023/03/26 10:49:47;;;;;;;17.95;3.80;;;8.80;99.90;;;;;;5017415;28;20474;-71
2023/03/26 10:52:35;;;;;;;14.13;6.13;;;8.80;99.90;;;;;;5015132;28;20061;-71
2023/03/26 10:55:31;;;;;;;14.05;3.60;;;8.70;99.90;;;;;;5012985;28;20124;-70
2023/03/26 10:58:30;;;;;;;20.45;6.80;;;8.60;99.90;;;;;;5018925;28;20018;-70
2023/03/26 11:01:03;;;;;;;18.17;6.53;;;8.50;99.90;;;;;;5014059;28;20845;-69
2023/03/26 11:03:51;;;;;;;15.32;6.53;;;8.50;99.90;;;;;;5006436;28;20169;-69
2023/03/26 11:07:07;;;;;;;18.98;6.68;;;8.50;99.90;;;;;;5017635;28;20060;-70
2023/03/26 11:09:49;;;;;;;19.80;7.57;;;8.50;99.90;;;;;;5007999;28;20502;-69
2023/03/26 11:12:32;;;;;;;9.77;2.90;;;8.40;99.90;;;;;;5018916;28;20108;-69
2023/03/26 11:15:26;;;;;;;18.40;8.77;;;8.30;99.90;;;;;;5024959;28;20033;-69
2023/03/26 11:18:00;;;;;;;9.15;3.22;;;8.10;99.90;;;;;;5010892;28;20034;-69
2023/03/26 11:20:32;;;;;;;9.20;2.65;;;8.00;99.90;;;;;;5018005;28;21785;-70
2023/03/26 11:23:14;;;;;;;11.90;4.05;;;7.90;99.90;;;;;;5016320;28;20029;-70
2023/03/26 11:25:52;;;;;;;14.57;4.47;;;7.90;99.90;;;;;;5013170;28;20454;-69
2023/03/26 11:28:35;;;;;;;13.50;5.43;;;7.80;99.90;;;;;;5016783;28;20116;-70
2023/03/26 11:31:15;;;;;;;11.07;4.32;;;7.80;99.90;;;;;;5006604;28;20034;-68
2023/03/26 11:33:56;;;;;;;18.67;6.00;;;7.80;99.90;;;;;;5012972;28;20927;-69
2023/03/26 11:36:28;;;;;;;12.38;4.20;;;7.80;99.90;;;;;;5016571;28;20026;-69
2023/03/26 11:39:03;;;;;;;14.50;9.23;;;7.80;99.90;;;;;;5018550;28;20090;-69
2023/03/26 11:41:36;;;;;;;11.15;3.70;;;7.80;99.90;;;;;;5014048;28;20046;-68
2023/03/26 11:44:20;;;;;;;6.15;2.30;;;7.80;99.90;;;;;;5017332;28;20045;-69
2023/03/26 11:46:51;;;;;;;3.80;0.90;;;7.70;99.90;;;;;;5016922;28;20033;-68
2023/03/26 11:49:26;;;;;;;3.08;0.70;;;7.70;99.90;;;;;;5023785;28;20095;-68
2023/03/26 11:51:57;;;;;;;0.90;0.50;;;7.50;99.90;;;;;;5020093;28;20033;-68
2023/03/26 11:54:23;;;;;;;2.95;0.47;;;7.30;99.90;;;;;;5021271;28;20045;-68
2023/03/26 11:57:04;;;;;;;1.60;0.70;;;7.20;99.90;;;;;;5020546;28;20118;-68
2023/03/26 11:59:37;;;;;;;3.72;2.40;;;7.10;99.90;;;;;;5015919;28;20037;-67
2023/03/26 12:02:21;;;;;;;3.72;2.28;;;7.00;99.90;;;;;;5018106;28;20025;-67
2023/03/26 12:05:16;;;;;;;10.20;4.90;;;6.90;99.90;;;;;;5009497;28;20173;-68
2023/03/26 12:07:54;;;;;;;5.15;2.42;;;6.90;99.90;;;;;;5012170;28;20029;-68
2023/03/26 12:10:33;;;;;;;13.85;5.15;;;6.90;99.90;;;;;;5017631;28;20164;-68
2023/03/26 12:13:17;;;;;;;10.43;6.13;;;6.90;99.90;;;;;;5014348;28;20441;-68
2023/03/26 12:15:49;;;;;;;9.68;4.55;;;6.90;99.90;;;;;;5017423;28;20037;-68
2023/03/26 12:18:30;;;;;;;4.67;2.70;;;6.90;99.90;;;;;;5017286;28;20029;-68
2023/03/26 12:21:17;;;;;;;9.45;4.57;;;6.90;99.90;;;;;;5007833;28;20296;-68
2023/03/26 12:23:56;;;;;;;8.23;4.90;;;6.90;99.90;;;;;;5022639;28;20029;-68
2023/03/26 12:26:33;;;;;;;10.07;6.50;;;7.00;99.90;;;;;;5011857;28;20057;-68
2023/03/26 12:29:06;;;;;;;9.77;5.28;;;7.00;99.90;;;;;;5018425;28;20120;-68
2023/03/26 12:31:43;;;;;;;4.40;2.30;;;7.10;99.90;;;;;;5010074;28;20387;-68
2023/03/26 12:34:17;;;;;;;1.67;0.80;;;7.20;99.90;;;;;;5010863;28;20029;-68
2023/03/26 12:36:59;;;;;;;2.45;0.93;;;7.20;99.90;;;;;;5016606;28;20029;-69
2023/03/26 12:39:37;;;;;;;1.40;0.60;;;7.30;99.90;;;;;;5018315;28;20033;-68
2023/03/26 12:42:35;;;;;;;1.17;1.08;;;7.40;99.90;;;;;;5014126;28;20718;-68
2023/03/26 12:45:05;;;;;;;3.95;1.80;;;7.50;99.90;;;;;;5019187;28;20042;-67
2023/03/26 12:47:35;;;;;;;2.35;1.40;;;7.50;99.90;;;;;;5015640;28;20021;-68
2023/03/26 12:50:08;;;;;;;3.20;1.90;;;7.60;99.90;;;;;;5015055;28;20171;-67
2023/03/26 12:52:41;;;;;;;1.83;1.35;;;7.70;99.90;;;;;;5015140;28;20080;-68
2023/03/26 12:55:10;;;;;;;;;;;7.80;99.90;;;;;;5018799;28;20022;-68
2023/03/26 12:57:47;;;;;;;1.00;0.70;;;7.90;99.90;;;;;;5012275;28;19909;-69
2023/03/26 13:00:27;;;;;;;2.15;0.65;;;8.00;99.90;;;;;;5017305;28;20056;-69
2023/03/26 13:03:13;;;;;;;2.45;0.80;;;8.10;99.90;;;;;;5016977;28;20034;-69
2023/03/26 13:05:57;;;;;;;1.23;0.60;;;8.20;99.90;;;;;;5011769;28;20406;-68
2023/03/26 13:08:33;;;;;;;0.82;0.50;;;8.20;99.90;;;;;;5018458;28;20121;-69
2023/03/26 13:11:08;;;;;;;1.73;0.40;;;8.30;99.90;;;;;;5016405;28;20037;-69
2023/03/26 13:14:13;;;;;;;2.72;0.88;;;8.30;99.90;;;;;;5013596;28;20127;-69
2023/03/26 13:16:50;;;;;;;1.17;0.40;;;8.40;99.90;;;;;;5015984;28;20055;-68
2023/03/26 13:19:45;;;;;;;0.55;0.40;;;8.40;99.90;;;;;;5014431;28;20033;-68
2023/03/26 13:22:23;;;;;;;2.08;0.35;;;8.40;99.90;;;;;;5017478;28;20716;-67
2023/03/26 13:25:29;;;;;;;1.70;0.50;;;8.40;99.90;;;;;;5011152;28;20037;-67
2023/03/26 13:28:22;;;;;;;1.50;0.60;;;8.50;99.90;;;;;;5011774;28;20053;-67
2023/03/26 13:31:17;;;;;;;1.63;0.70;;;8.60;99.90;;;;;;5020113;28;20052;-68
2023/03/26 13:33:49;;;;;;;1.05;0.40;;;8.60;99.90;;;;;;5018486;28;20029;-68
2023/03/26 13:36:24;;;;;;;1.40;0.75;;;8.60;99.90;;;;;;5014983;28;20033;-67
2023/03/26 13:39:08;;;;;;;1.77;0.70;;;8.60;99.90;;;;;;5012384;28;20052;-67
2023/03/26 13:41:40;;;;;;;3.10;0.75;;;8.60;99.90;;;;;;5017637;28;20115;-67
2023/03/26 13:44:31;;;;;;;1.33;0.65;;;8.60;99.90;;;;;;5017410;28;20021;-67
2023/03/26 13:47:06;;;;;;;1.05;0.80;;;8.60;99.90;;;;;;5013947;28;20041;-68
2023/03/26 13:49:38;;;;;;;1.00;0.80;;;8.60;99.90;;;;;;5011755;28;20132;-68
2023/03/26 13:52:26;;;;;;;1.02;0.60;;;8.60;99.90;;;;;;5007893;28;20037;-69
2023/03/26 13:55:16;;;;;;;1.77;0.60;;;8.60;99.90;;;;;;5015354;28;20091;-69